createdAt,value
2022-10-02T00:02:21.444Z,64.53
2022-10-02T00:04:55.289Z,64.13
2022-10-02T00:07:30.698Z,66.03
2022-10-02T00:10:02.502Z,64.10
2022-10-02T00:12:32.488Z,64.67
2022-10-02T00:15:14.372Z,65.63
2022-10-02T00:17:45.798Z,65.77
2022-10-02T00:20:15.330Z,66.20
2022-10-02T00:22:52.724Z,65.80
2022-10-02T00:25:29.156Z,65.57
2022-10-02T00:28:13.227Z,66.60
2022-10-02T00:30:55.569Z,65.80
2022-10-02T00:33:29.769Z,67.80
2022-10-02T00:36:10.283Z,65.97
2022-10-02T00:38:48.604Z,66.60
2022-10-02T00:41:38.726Z,65.90
2022-10-02T00:44:29.629Z,65.53
2022-10-02T00:47:05.212Z,66.33
2022-10-02T00:49:52.862Z,67.93
2022-10-02T00:52:37.714Z,66.43
2022-10-02T00:55:21.670Z,66.57
2022-10-02T00:58:03.671Z,67.57
2022-10-02T01:00:31.647Z,64.97
2022-10-02T01:03:12.548Z,63.07
2022-10-02T01:05:40.499Z,62.97
2022-10-02T01:08:09.061Z,63.77
2022-10-02T01:10:38.216Z,62.97
2022-10-02T01:13:06.907Z,63.20
2022-10-02T01:15:37.241Z,63.47
2022-10-02T01:18:07.921Z,62.67
2022-10-02T01:20:39.030Z,62.90
2022-10-02T01:23:14.344Z,63.03
2022-10-02T01:25:43.826Z,63.13
2022-10-02T01:28:12.327Z,62.70
2022-10-02T01:30:42.469Z,63.13
2022-10-02T01:33:11.746Z,61.83
2022-10-02T01:35:40.830Z,63.00
2022-10-02T01:38:12.103Z,63.70
2022-10-02T01:40:41.863Z,62.63
2022-10-02T01:43:14.019Z,63.77
2022-10-02T01:45:56.855Z,63.40
2022-10-02T01:48:38.261Z,64.03
2022-10-02T01:51:20.322Z,63.50
2022-10-02T01:53:51.766Z,66.63
2022-10-02T01:56:28.732Z,66.67
2022-10-02T01:59:09.417Z,66.30
2022-10-02T02:01:47.760Z,64.07
2022-10-02T02:04:24.605Z,65.20
2022-10-02T02:07:00.158Z,65.50
2022-10-02T02:09:34.246Z,67.37
2022-10-02T02:12:08.895Z,63.50
2022-10-02T02:14:43.338Z,64.70
2022-10-02T02:17:16.278Z,63.77
2022-10-02T02:19:48.334Z,65.23
2022-10-02T02:22:20.785Z,66.30
2022-10-02T02:24:53.365Z,65.20
2022-10-02T02:27:25.345Z,65.23
2022-10-02T02:29:58.915Z,67.57
2022-10-02T02:32:30.376Z,67.23
2022-10-02T02:35:05.267Z,66.07
2022-10-02T02:37:36.455Z,69.30
2022-10-02T02:40:07.454Z,65.07
2022-10-02T02:42:42.384Z,68.13
2022-10-02T02:45:17.605Z,66.13
2022-10-02T02:47:51.625Z,64.20
2022-10-02T02:50:24.127Z,67.13
2022-10-02T02:52:57.445Z,67.53
2022-10-02T02:55:29.946Z,66.83
2022-10-02T02:58:02.996Z,66.23
2022-10-02T03:00:32.239Z,66.63
2022-10-02T03:03:00.560Z,62.70
2022-10-02T03:05:29.599Z,64.33
2022-10-02T03:08:01.423Z,65.03
2022-10-02T03:10:40.948Z,63.77
2022-10-02T03:13:24.172Z,65.77
2022-10-02T03:16:06.076Z,64.67
2022-10-02T03:18:50.032Z,65.93
2022-10-02T03:21:24.485Z,65.87
2022-10-02T03:24:00.474Z,66.20
2022-10-02T03:26:35.713Z,65.07
2022-10-02T03:29:07.720Z,64.87
2022-10-02T03:31:38.086Z,65.03
2022-10-02T03:34:06.638Z,64.10
2022-10-02T03:36:35.040Z,62.53
2022-10-02T03:39:24.115Z,63.73
2022-10-02T03:41:52.805Z,64.20
2022-10-02T03:44:20.429Z,65.10
2022-10-02T03:46:49.423Z,64.87
2022-10-02T03:49:17.011Z,64.50
2022-10-02T03:51:44.570Z,62.87
2022-10-02T03:54:17.783Z,63.40
2022-10-02T03:56:54.263Z,66.07
2022-10-02T03:59:40.595Z,64.33
2022-10-02T04:02:18.871Z,62.60
2022-10-02T04:04:50.860Z,63.27
2022-10-02T04:07:23.884Z,61.30
2022-10-02T04:09:58.513Z,61.53
2022-10-02T04:12:32.076Z,62.80
2022-10-02T04:15:07.347Z,62.20
2022-10-02T04:17:44.786Z,62.37
2022-10-02T04:20:18.016Z,61.97
2022-10-02T04:22:50.253Z,61.77
2022-10-02T04:25:21.601Z,61.10
2022-10-02T04:27:54.334Z,61.83
2022-10-02T04:30:22.242Z,61.03
2022-10-02T04:32:51.914Z,62.03
2022-10-02T04:35:30.268Z,61.63
2022-10-02T04:38:17.974Z,61.90
2022-10-02T04:41:02.808Z,61.13
2022-10-02T04:43:45.855Z,60.70
2022-10-02T04:46:29.622Z,61.80
2022-10-02T04:49:13.549Z,60.10
2022-10-02T04:51:56.941Z,61.67
2022-10-02T04:54:42.278Z,61.30
2022-10-02T04:57:24.507Z,61.10
2022-10-02T05:00:05.107Z,60.77
2022-10-02T05:02:50.974Z,65.33
2022-10-02T05:05:31.007Z,65.07
2022-10-02T05:08:15.627Z,64.00
2022-10-02T05:11:03.579Z,64.30
2022-10-02T05:13:52.476Z,63.47
2022-10-02T05:16:37.413Z,66.47
2022-10-02T05:19:21.471Z,65.17
2022-10-02T05:22:19.838Z,65.13
2022-10-02T05:24:56.346Z,64.83
2022-10-02T05:27:49.401Z,65.30
2022-10-02T05:30:18.791Z,64.53
2022-10-02T05:33:13.140Z,65.93
2022-10-02T05:35:52.748Z,63.93
2022-10-02T05:38:39.301Z,65.60
2022-10-02T05:41:13.093Z,63.40
2022-10-02T05:43:43.946Z,62.80
2022-10-02T05:46:17.324Z,63.23
2022-10-02T05:48:48.358Z,63.43
2022-10-02T05:51:24.266Z,64.43
2022-10-02T05:53:58.076Z,64.63
2022-10-02T05:56:34.909Z,64.63
2022-10-02T05:59:10.533Z,65.50
2022-10-02T06:01:42.359Z,65.60
2022-10-02T06:04:17.351Z,64.80
2022-10-02T06:06:51.450Z,65.10
2022-10-02T06:09:24.654Z,61.80
2022-10-02T06:11:56.678Z,64.07
2022-10-02T06:14:31.721Z,75.57
2022-10-02T06:17:05.136Z,70.40
2022-10-02T06:19:38.161Z,72.27
2022-10-02T06:22:09.426Z,67.90
2022-10-02T06:24:43.314Z,67.40
2022-10-02T06:27:18.639Z,65.63
2022-10-02T06:29:51.547Z,65.10
2022-10-02T06:32:31.491Z,66.70
2022-10-02T06:34:59.495Z,65.60
2022-10-02T06:37:41.342Z,65.97
2022-10-02T06:40:20.709Z,64.23
2022-10-02T06:43:00.047Z,66.80
2022-10-02T06:45:40.151Z,71.27
2022-10-02T06:48:19.183Z,65.27
2022-10-02T06:50:56.109Z,63.43
2022-10-02T06:53:43.237Z,66.00
2022-10-02T06:56:30.285Z,65.30
2022-10-02T06:59:13.064Z,65.63
2022-10-02T07:01:57.267Z,62.53
2022-10-02T07:04:51.276Z,63.60
2022-10-02T07:07:34.780Z,65.10
2022-10-02T07:10:14.422Z,65.40
2022-10-02T07:13:02.891Z,65.37
2022-10-02T07:15:50.297Z,64.30
2022-10-02T07:18:25.247Z,64.67
2022-10-02T07:21:04.231Z,62.90
2022-10-02T07:24:02.751Z,65.40
2022-10-02T07:26:48.290Z,63.87
2022-10-02T07:29:32.931Z,65.23
2022-10-02T07:32:34.104Z,65.77
2022-10-02T07:35:10.934Z,62.90
2022-10-02T07:37:49.091Z,65.67
2022-10-02T07:40:30.232Z,64.23
2022-10-02T07:43:16.089Z,63.77
2022-10-02T07:45:51.985Z,64.40
2022-10-02T07:48:34.861Z,63.83
2022-10-02T07:51:30.295Z,63.93
2022-10-02T07:54:05.816Z,61.97
2022-10-02T07:56:36.037Z,63.83
2022-10-02T07:59:12.086Z,64.90
2022-10-02T08:01:42.359Z,60.93
2022-10-02T08:04:13.638Z,60.67
2022-10-02T08:06:42.307Z,63.27
2022-10-02T08:09:16.322Z,66.10
2022-10-02T08:11:49.478Z,64.43
2022-10-02T08:14:23.164Z,64.67
2022-10-02T08:16:54.372Z,60.87
2022-10-02T08:19:29.907Z,60.10
2022-10-02T08:22:02.072Z,63.00
2022-10-02T08:24:36.790Z,63.00
2022-10-02T08:27:11.776Z,66.30
2022-10-02T08:29:45.999Z,65.60
2022-10-02T08:32:16.000Z,64.53
2022-10-02T08:34:44.179Z,68.77
2022-10-02T08:37:30.879Z,71.90
2022-10-02T08:40:30.132Z,68.30
2022-10-02T08:43:23.935Z,66.97
2022-10-02T08:46:25.716Z,65.03
2022-10-02T08:49:23.519Z,65.53
2022-10-02T08:52:27.128Z,66.07
2022-10-02T08:55:33.766Z,67.17
2022-10-02T08:58:24.591Z,64.47
2022-10-02T09:01:07.179Z,64.87
2022-10-02T09:04:23.038Z,66.63
2022-10-02T09:07:13.498Z,65.87
2022-10-02T09:10:34.711Z,67.70
2022-10-02T09:13:28.837Z,67.40
2022-10-02T09:16:09.236Z,69.40
2022-10-02T09:18:59.974Z,65.20
2022-10-02T09:21:51.020Z,64.57
2022-10-02T09:24:53.518Z,66.23
2022-10-02T09:28:00.685Z,64.63
2022-10-02T09:31:06.923Z,65.23
2022-10-02T09:34:06.352Z,63.93
2022-10-02T09:37:24.853Z,70.00
2022-10-02T09:40:34.723Z,65.93
2022-10-02T09:43:45.471Z,67.27
2022-10-02T09:46:38.340Z,64.20
2022-10-02T09:49:32.118Z,66.10
2022-10-02T09:52:35.767Z,67.03
2022-10-02T09:55:36.797Z,65.53
2022-10-02T09:58:33.725Z,66.70
2022-10-02T10:01:19.208Z,65.50
2022-10-02T10:04:13.839Z,64.60
2022-10-02T10:07:24.012Z,66.30
2022-10-02T10:10:18.817Z,62.47
2022-10-02T10:13:32.313Z,62.33
2022-10-02T10:16:30.235Z,63.50
2022-10-02T10:19:24.625Z,63.33
2022-10-02T10:22:19.218Z,62.20
2022-10-02T10:25:18.549Z,61.63
2022-10-02T10:28:28.333Z,61.13
2022-10-02T10:31:25.448Z,63.43
2022-10-02T10:34:30.119Z,61.07
2022-10-02T10:37:18.841Z,61.83
2022-10-02T10:40:26.455Z,62.83
2022-10-02T10:43:14.270Z,64.10
2022-10-02T10:45:58.305Z,64.60
2022-10-02T10:48:54.141Z,77.60
2022-10-02T10:51:30.612Z,72.67
2022-10-02T10:54:22.596Z,78.23
2022-10-02T10:56:55.642Z,76.73
2022-10-02T10:59:50.549Z,75.87
2022-10-02T11:02:47.260Z,72.50
2022-10-02T11:05:37.673Z,70.63
2022-10-02T11:08:29.703Z,68.43
2022-10-02T11:11:09.214Z,73.10
2022-10-02T11:13:59.271Z,70.93
2022-10-02T11:16:45.310Z,68.07
2022-10-02T11:19:27.659Z,69.03
2022-10-02T11:22:12.593Z,65.00
2022-10-02T11:25:00.739Z,63.70
2022-10-02T11:28:10.210Z,66.03
2022-10-02T11:30:51.755Z,68.07
2022-10-02T11:33:35.399Z,70.23
2022-10-02T11:36:21.130Z,70.00
2022-10-02T11:39:16.232Z,66.87
2022-10-02T11:42:22.410Z,70.37
2022-10-02T11:45:04.362Z,68.03
2022-10-02T11:48:09.245Z,65.50
2022-10-02T11:50:58.294Z,64.27
2022-10-02T11:53:53.247Z,63.53
2022-10-02T11:56:43.125Z,64.33
2022-10-02T11:59:30.514Z,69.90
2022-10-02T12:02:05.416Z,61.60
2022-10-02T12:04:42.809Z,63.90
2022-10-02T12:07:25.447Z,65.80
2022-10-02T12:10:14.971Z,72.23
2022-10-02T12:12:53.391Z,66.90
2022-10-02T12:15:31.382Z,71.30
2022-10-02T12:18:20.889Z,65.40
2022-10-02T12:21:19.674Z,66.30
2022-10-02T12:24:09.160Z,66.57
2022-10-02T12:27:04.081Z,63.33
2022-10-02T12:29:43.838Z,67.60
2022-10-02T12:32:24.150Z,65.13
2022-10-02T12:35:02.597Z,72.77
2022-10-02T12:37:37.721Z,64.10
2022-10-02T12:40:16.721Z,69.20
2022-10-02T12:43:04.363Z,65.93
2022-10-02T12:45:53.415Z,68.47
2022-10-02T12:48:36.025Z,61.50
2022-10-02T12:51:30.478Z,63.27
2022-10-02T12:54:21.725Z,62.63
2022-10-02T12:57:41.663Z,63.83
2022-10-02T13:00:15.434Z,61.40
2022-10-02T13:03:06.459Z,60.30
2022-10-02T13:06:03.587Z,60.20
2022-10-02T13:08:48.316Z,58.60
2022-10-02T13:11:28.870Z,58.57
2022-10-02T13:14:15.560Z,58.07
2022-10-02T13:17:09.690Z,58.33
2022-10-02T13:19:53.968Z,58.60
2022-10-02T13:22:34.889Z,62.03
2022-10-02T13:25:23.745Z,63.13
2022-10-02T13:28:01.941Z,61.23
2022-10-02T13:30:38.677Z,60.90
2022-10-02T13:33:25.135Z,61.30
2022-10-02T13:36:05.177Z,61.20
2022-10-02T13:38:45.947Z,63.03
2022-10-02T13:41:25.058Z,63.30
2022-10-02T13:44:08.537Z,63.53
2022-10-02T13:46:51.841Z,64.43
2022-10-02T13:49:31.564Z,64.00
2022-10-02T13:52:11.792Z,62.30
2022-10-02T13:54:59.512Z,63.57
2022-10-02T13:57:51.994Z,64.10
2022-10-02T14:00:40.366Z,60.70
2022-10-02T14:03:16.278Z,59.60
2022-10-02T14:05:55.750Z,60.60
2022-10-02T14:08:46.393Z,59.40
2022-10-02T14:11:24.178Z,59.90
2022-10-02T14:14:06.848Z,58.87
2022-10-02T14:16:48.885Z,58.00
2022-10-02T14:19:52.182Z,59.27
2022-10-02T14:22:33.935Z,58.63
2022-10-02T14:25:23.294Z,59.57
2022-10-02T14:28:02.175Z,61.80
2022-10-02T14:30:42.531Z,60.83
2022-10-02T14:33:20.270Z,60.80
2022-10-02T14:35:55.096Z,63.07
2022-10-02T14:38:49.628Z,64.37
2022-10-02T14:41:50.312Z,65.17
2022-10-02T14:44:36.037Z,62.80
2022-10-02T14:47:21.097Z,62.10
2022-10-02T14:50:13.598Z,62.20
2022-10-02T14:53:01.850Z,62.77
2022-10-02T14:55:47.879Z,62.60
2022-10-02T14:58:30.985Z,63.53
2022-10-02T15:01:17.930Z,63.70
2022-10-02T15:04:08.485Z,63.50
2022-10-02T15:06:56.962Z,65.73
2022-10-02T15:09:29.454Z,63.17
2022-10-02T15:12:07.755Z,65.47
2022-10-02T15:14:48.622Z,64.73
2022-10-02T15:17:42.095Z,67.30
2022-10-02T15:20:22.905Z,67.23
2022-10-02T15:22:58.373Z,64.80
2022-10-02T15:25:37.956Z,66.40
2022-10-02T15:28:35.005Z,63.90
2022-10-02T15:31:13.197Z,69.57
2022-10-02T15:33:47.016Z,67.20
2022-10-02T15:36:37.039Z,66.13
2022-10-02T15:39:25.839Z,70.67
2022-10-02T15:42:05.149Z,69.47
2022-10-02T15:44:46.587Z,69.83
2022-10-02T15:47:31.967Z,70.20
2022-10-02T15:50:15.250Z,68.43
2022-10-02T15:52:55.088Z,75.03
2022-10-02T15:55:32.561Z,74.67
2022-10-02T15:58:17.929Z,74.03
2022-10-02T16:01:08.671Z,66.90
2022-10-02T16:03:44.786Z,67.73
2022-10-02T16:06:24.904Z,65.90
2022-10-02T16:09:28.912Z,66.27
2022-10-02T16:12:18.655Z,62.90
2022-10-02T16:14:57.952Z,66.27
2022-10-02T16:17:48.948Z,69.37
2022-10-02T16:20:52.201Z,68.53
2022-10-02T16:23:47.331Z,67.23
2022-10-02T16:26:28.089Z,65.03
2022-10-02T16:29:14.259Z,64.53
2022-10-02T16:31:55.003Z,73.27
2022-10-02T16:34:43.228Z,66.40
2022-10-02T16:37:24.885Z,69.43
2022-10-02T16:39:59.709Z,75.60
2022-10-02T16:42:49.519Z,73.27
2022-10-02T16:45:36.819Z,76.80
2022-10-02T16:48:12.101Z,64.50
2022-10-02T16:51:04.703Z,67.00
2022-10-02T16:53:41.308Z,64.13
2022-10-02T16:56:14.759Z,67.47
2022-10-02T16:58:50.112Z,63.30
2022-10-02T17:01:27.921Z,61.57
2022-10-02T17:04:21.826Z,64.60
2022-10-02T17:06:53.946Z,63.93
2022-10-02T17:09:31.809Z,61.60
2022-10-02T17:12:08.109Z,63.57
2022-10-02T17:14:44.870Z,61.70
2022-10-02T17:17:22.016Z,60.27
2022-10-02T17:19:54.909Z,60.40
2022-10-02T17:22:31.395Z,60.70
2022-10-02T17:25:14.733Z,63.77
2022-10-02T17:27:51.711Z,62.33
2022-10-02T17:30:24.205Z,64.43
2022-10-02T17:33:07.000Z,62.10
2022-10-02T17:35:40.849Z,61.80
2022-10-02T17:38:30.964Z,61.00
2022-10-02T17:41:09.995Z,62.10
2022-10-02T17:46:39.133Z,62.53
2022-10-02T17:49:18.092Z,62.53
2022-10-02T17:51:53.240Z,60.00
2022-10-02T17:55:02.552Z,59.17
2022-10-02T17:57:46.415Z,62.63
2022-10-02T18:00:23.943Z,66.93
2022-10-02T18:03:27.641Z,65.77
2022-10-02T18:06:03.998Z,63.53
2022-10-02T18:09:01.045Z,67.37
2022-10-02T18:11:50.045Z,66.00
2022-10-02T18:14:30.226Z,63.37
2022-10-02T18:17:18.861Z,64.63
2022-10-02T18:19:56.500Z,66.63
2022-10-02T18:22:42.892Z,64.23
2022-10-02T18:25:38.664Z,77.27
2022-10-02T18:28:23.743Z,79.60
2022-10-02T18:31:04.784Z,71.30
2022-10-02T18:34:02.975Z,70.93
2022-10-02T18:36:42.649Z,67.10
2022-10-02T18:39:19.076Z,68.20
2022-10-02T18:41:57.851Z,70.60
2022-10-02T18:44:48.853Z,67.70
2022-10-02T18:47:34.067Z,66.80
2022-10-02T18:50:19.521Z,66.70
2022-10-02T18:52:59.917Z,63.80
2022-10-02T18:55:40.896Z,63.50
2022-10-02T18:58:24.084Z,64.57
2022-10-02T19:01:06.164Z,64.80
2022-10-02T19:03:46.199Z,65.83
2022-10-02T19:06:20.067Z,67.87
2022-10-02T19:09:06.292Z,66.50
2022-10-02T19:11:36.087Z,65.53
2022-10-02T19:14:14.527Z,68.13
2022-10-02T19:16:58.186Z,71.60
2022-10-02T19:19:28.036Z,72.80
2022-10-02T19:21:59.567Z,72.53
2022-10-02T19:24:32.134Z,73.37
2022-10-02T19:27:02.374Z,71.10
2022-10-02T19:29:36.700Z,67.67
2022-10-02T19:32:14.223Z,65.73
2022-10-02T19:34:44.860Z,64.97
2022-10-02T19:37:17.338Z,67.97
2022-10-02T19:39:51.073Z,68.80
2022-10-02T19:42:25.006Z,67.20
2022-10-02T19:44:57.726Z,65.93
2022-10-02T19:47:29.342Z,67.00
2022-10-02T19:50:00.394Z,65.10
2022-10-02T19:52:43.697Z,65.60
2022-10-02T19:55:22.717Z,64.60
2022-10-02T19:57:51.538Z,64.90
2022-10-02T20:00:20.873Z,65.20
2022-10-02T20:02:50.014Z,66.70
2022-10-02T20:05:23.639Z,67.33
2022-10-02T20:07:54.949Z,68.53
2022-10-02T20:10:30.094Z,68.20
2022-10-02T20:13:06.164Z,66.40
2022-10-02T20:15:58.479Z,67.70
2022-10-02T20:18:26.663Z,69.97
2022-10-02T20:21:07.367Z,68.33
2022-10-02T20:23:37.828Z,69.13
2022-10-02T20:26:09.489Z,70.00
2022-10-02T20:28:46.184Z,70.10
2022-10-02T20:31:18.406Z,66.50
2022-10-02T20:33:50.091Z,68.20
2022-10-02T20:36:21.817Z,68.73
2022-10-02T20:38:53.083Z,71.43
2022-10-02T20:41:24.620Z,67.90
2022-10-02T20:43:56.482Z,68.87
2022-10-02T20:46:56.768Z,67.50
2022-10-02T20:49:42.465Z,68.30
2022-10-02T20:52:54.734Z,69.73
2022-10-02T20:55:30.189Z,70.60
2022-10-02T20:58:11.760Z,70.67
2022-10-02T21:00:58.594Z,67.90
2022-10-02T21:03:50.006Z,69.50
2022-10-02T21:07:08.042Z,69.93
2022-10-02T21:10:29.269Z,70.37
2022-10-02T21:13:16.410Z,70.33
2022-10-02T21:16:05.512Z,71.83
2022-10-02T21:19:14.668Z,71.33
2022-10-02T21:22:19.361Z,70.23
2022-10-02T21:25:47.043Z,68.90
2022-10-02T21:29:15.223Z,68.17
2022-10-02T21:31:56.371Z,66.20
2022-10-02T21:34:38.244Z,66.13
2022-10-02T21:37:18.239Z,67.60
2022-10-02T21:40:11.600Z,69.20
2022-10-02T21:43:30.798Z,67.67
2022-10-02T21:46:15.034Z,68.83
2022-10-02T21:49:15.292Z,69.93
2022-10-02T21:52:24.470Z,69.40
2022-10-02T21:55:17.609Z,70.07
2022-10-02T21:58:29.870Z,72.40
2022-10-02T22:01:23.252Z,71.10
2022-10-02T22:04:33.313Z,71.63
2022-10-02T22:07:09.136Z,72.43
2022-10-02T22:09:50.130Z,74.20
2022-10-02T22:12:34.822Z,73.83
2022-10-02T22:15:13.392Z,75.07
2022-10-02T22:17:55.251Z,77.67
2022-10-02T22:20:41.364Z,71.97
2022-10-02T22:23:33.114Z,71.90
2022-10-02T22:26:13.896Z,70.30
2022-10-02T22:28:46.312Z,68.73
2022-10-02T22:31:29.464Z,75.50
2022-10-02T22:34:12.097Z,74.03
2022-10-02T22:36:58.551Z,71.57
2022-10-02T22:39:31.528Z,73.07
2022-10-02T22:42:06.613Z,75.57
2022-10-02T22:44:38.002Z,74.57
2022-10-02T22:47:12.047Z,75.60
2022-10-02T22:49:47.354Z,74.10
2022-10-02T22:52:22.391Z,72.87
2022-10-02T22:54:59.526Z,72.13
2022-10-02T22:57:39.870Z,73.77
2022-10-02T23:00:17.522Z,72.90
2022-10-02T23:02:51.482Z,74.50
2022-10-02T23:05:28.408Z,75.00
2022-10-02T23:08:02.601Z,71.17
2022-10-02T23:10:35.455Z,73.90
2022-10-02T23:13:12.819Z,74.40
2022-10-02T23:15:49.840Z,74.00
2022-10-02T23:18:27.676Z,73.90
2022-10-02T23:21:04.575Z,72.07
2022-10-02T23:23:37.014Z,75.13
2022-10-02T23:26:12.224Z,73.77
2022-10-02T23:28:50.543Z,74.23
2022-10-02T23:31:30.295Z,72.63
2022-10-02T23:34:14.404Z,72.17
2022-10-02T23:36:52.298Z,74.07
2022-10-02T23:39:26.047Z,73.40
2022-10-02T23:41:57.687Z,74.30
2022-10-02T23:44:35.754Z,71.50
2022-10-02T23:47:20.248Z,73.97
2022-10-02T23:49:51.075Z,76.90
2022-10-02T23:52:43.296Z,76.03
2022-10-02T23:55:23.033Z,76.83
2022-10-02T23:58:11.278Z,73.17
